METAR Data
IDs: Format: Raw Decoded Include TAF

Data at: 0239 UTC 20 Jan 2022

METAR for:KBIJ (Blakely/Early Cnty, GA, US)
Text:KBIJ 200215Z AUTO 00000KT 10SM CLR 07/05 A3013 RMK AO2
Temperature: 7.0°C ( 45°F)
Dewpoint: 5.0°C ( 41°F) [RH = 87%]
Pressure (altimeter):30.13 inches Hg (1020.4 mb)
Winds:calm
Visibility:10 or more sm (16+ km)
Ceiling:at least 12,000 feet AGL
Clouds:sky clear below 12,000 feet AGL
QC Flag:automated observation with no human augmentation
Text:KBIJ 200155Z AUTO 00000KT 10SM CLR 07/05 A3014 RMK AO2
Temperature: 7.0°C ( 45°F)
Dewpoint: 5.0°C ( 41°F) [RH = 87%]
Pressure (altimeter):30.14 inches Hg (1020.7 mb)
Winds:calm
Visibility:10 or more sm (16+ km)
Ceiling:at least 12,000 feet AGL
Clouds:sky clear below 12,000 feet AGL
QC Flag:automated observation with no human augmentation
Text:KBIJ 200135Z AUTO 00000KT 10SM CLR 07/05 A3013 RMK AO2
Temperature: 7.0°C ( 45°F)
Dewpoint: 5.0°C ( 41°F) [RH = 87%]
Pressure (altimeter):30.13 inches Hg (1020.4 mb)
Winds:calm
Visibility:10 or more sm (16+ km)
Ceiling:at least 12,000 feet AGL
Clouds:sky clear below 12,000 feet AGL
QC Flag:automated observation with no human augmentation
Text:KBIJ 200115Z AUTO 00000KT 10SM CLR 08/06 A3013 RMK AO2
Temperature: 8.0°C ( 46°F)
Dewpoint: 6.0°C ( 43°F) [RH = 87%]
Pressure (altimeter):30.13 inches Hg (1020.4 mb)
Winds:calm
Visibility:10 or more sm (16+ km)
Ceiling:at least 12,000 feet AGL
Clouds:sky clear below 12,000 feet AGL
QC Flag:automated observation with no human augmentation
Text:KBIJ 200055Z AUTO 00000KT 10SM CLR 08/06 A3013 RMK AO2
Temperature: 8.0°C ( 46°F)
Dewpoint: 6.0°C ( 43°F) [RH = 87%]
Pressure (altimeter):30.13 inches Hg (1020.4 mb)
Winds:calm
Visibility:10 or more sm (16+ km)
Ceiling:at least 12,000 feet AGL
Clouds:sky clear below 12,000 feet AGL
QC Flag:automated observation with no human augmentation
Text:KBIJ 200035Z AUTO 00000KT 10SM CLR 09/06 A3014 RMK AO2
Temperature: 9.0°C ( 48°F)
Dewpoint: 6.0°C ( 43°F) [RH = 81%]
Pressure (altimeter):30.14 inches Hg (1020.7 mb)
Winds:calm
Visibility:10 or more sm (16+ km)
Ceiling:at least 12,000 feet AGL
Clouds:sky clear below 12,000 feet AGL
QC Flag:automated observation with no human augmentation
Text:KBIJ 200015Z AUTO 00000KT 10SM CLR 10/06 A3014 RMK AO2
Temperature: 10.0°C ( 50°F)
Dewpoint: 6.0°C ( 43°F) [RH = 76%]
Pressure (altimeter):30.14 inches Hg (1020.7 mb)
Winds:calm
Visibility:10 or more sm (16+ km)
Ceiling:at least 12,000 feet AGL
Clouds:sky clear below 12,000 feet AGL
QC Flag:automated observation with no human augmentation
Text:KBIJ 192355Z AUTO 00000KT 10SM CLR 11/07 A3014 RMK AO2
Temperature: 11.0°C ( 52°F)
Dewpoint: 7.0°C ( 45°F) [RH = 76%]
Pressure (altimeter):30.14 inches Hg (1020.7 mb)
Winds:calm
Visibility:10 or more sm (16+ km)
Ceiling:at least 12,000 feet AGL
Clouds:sky clear below 12,000 feet AGL
QC Flag:automated observation with no human augmentation
Text:KBIJ 192335Z AUTO 00000KT 10SM CLR 12/05 A3013 RMK AO2
Temperature: 12.0°C ( 54°F)
Dewpoint: 5.0°C ( 41°F) [RH = 62%]
Pressure (altimeter):30.13 inches Hg (1020.4 mb)
Winds:calm
Visibility:10 or more sm (16+ km)
Ceiling:at least 12,000 feet AGL
Clouds:sky clear below 12,000 feet AGL
QC Flag:automated observation with no human augmentation
Text:KBIJ 192315Z AUTO 00000KT 10SM CLR 14/05 A3013 RMK AO2
Temperature: 14.0°C ( 57°F)
Dewpoint: 5.0°C ( 41°F) [RH = 55%]
Pressure (altimeter):30.13 inches Hg (1020.4 mb)
Winds:calm
Visibility:10 or more sm (16+ km)
Ceiling:at least 12,000 feet AGL
Clouds:sky clear below 12,000 feet AGL
QC Flag:automated observation with no human augmentation
Text:KBIJ 192255Z AUTO 00000KT 10SM CLR 16/05 A3014 RMK AO2
Temperature: 16.0°C ( 61°F)
Dewpoint: 5.0°C ( 41°F) [RH = 48%]
Pressure (altimeter):30.14 inches Hg (1020.7 mb)
Winds:calm
Visibility:10 or more sm (16+ km)
Ceiling:at least 12,000 feet AGL
Clouds:sky clear below 12,000 feet AGL
QC Flag:automated observation with no human augmentation
Text:KBIJ 192235Z AUTO 16003KT 10SM CLR 16/05 A3014 RMK AO2
Temperature: 16.0°C ( 61°F)
Dewpoint: 5.0°C ( 41°F) [RH = 48%]
Pressure (altimeter):30.14 inches Hg (1020.7 mb)
Winds:from the SSE (160 degrees) at 3 MPH (3 knots; 1.5 m/s)
Visibility:10 or more sm (16+ km)
Ceiling:at least 12,000 feet AGL
Clouds:sky clear below 12,000 feet AGL
QC Flag:automated observation with no human augmentation
Text:KBIJ 192215Z AUTO 17004KT 10SM CLR 17/04 A3014 RMK AO2
Temperature: 17.0°C ( 63°F)
Dewpoint: 4.0°C ( 39°F) [RH = 42%]
Pressure (altimeter):30.14 inches Hg (1020.7 mb)
Winds:from the S (170 degrees) at 5 MPH (4 knots; 2.1 m/s)
Visibility:10 or more sm (16+ km)
Ceiling:at least 12,000 feet AGL
Clouds:sky clear below 12,000 feet AGL
QC Flag:automated observation with no human augmentation
Text:KBIJ 192155Z AUTO 00000KT 10SM CLR 17/05 A3016 RMK AO2
Temperature: 17.0°C ( 63°F)
Dewpoint: 5.0°C ( 41°F) [RH = 45%]
Pressure (altimeter):30.16 inches Hg (1021.4 mb)
Winds:calm
Visibility:10 or more sm (16+ km)
Ceiling:at least 12,000 feet AGL
Clouds:sky clear below 12,000 feet AGL
QC Flag:automated observation with no human augmentation
Text:KBIJ 192135Z AUTO 19003KT 10SM CLR 17/05 A3016 RMK AO2
Temperature: 17.0°C ( 63°F)
Dewpoint: 5.0°C ( 41°F) [RH = 45%]
Pressure (altimeter):30.16 inches Hg (1021.4 mb)
Winds:from the S (190 degrees) at 3 MPH (3 knots; 1.5 m/s)
Visibility:10 or more sm (16+ km)
Ceiling:at least 12,000 feet AGL
Clouds:sky clear below 12,000 feet AGL
QC Flag:automated observation with no human augmentation
Text:KBIJ 192115Z AUTO 20006KT 10SM CLR 17/03 A3016 RMK AO2
Temperature: 17.0°C ( 63°F)
Dewpoint: 3.0°C ( 37°F) [RH = 39%]
Pressure (altimeter):30.16 inches Hg (1021.4 mb)
Winds:from the SSW (200 degrees) at 7 MPH (6 knots; 3.1 m/s)
Visibility:10 or more sm (16+ km)
Ceiling:at least 12,000 feet AGL
Clouds:sky clear below 12,000 feet AGL
QC Flag:automated observation with no human augmentation
Text:KBIJ 192055Z AUTO 18005KT 10SM CLR 17/05 A3016 RMK AO2
Temperature: 17.0°C ( 63°F)
Dewpoint: 5.0°C ( 41°F) [RH = 45%]
Pressure (altimeter):30.16 inches Hg (1021.4 mb)
Winds:from the S (180 degrees) at 6 MPH (5 knots; 2.6 m/s)
Visibility:10 or more sm (16+ km)
Ceiling:at least 12,000 feet AGL
Clouds:sky clear below 12,000 feet AGL
QC Flag:automated observation with no human augmentation
Text:KBIJ 192035Z AUTO 19004KT 10SM CLR 17/05 A3017 RMK AO2
Temperature: 17.0°C ( 63°F)
Dewpoint: 5.0°C ( 41°F) [RH = 45%]
Pressure (altimeter):30.17 inches Hg (1021.8 mb)
Winds:from the S (190 degrees) at 5 MPH (4 knots; 2.1 m/s)
Visibility:10 or more sm (16+ km)
Ceiling:at least 12,000 feet AGL
Clouds:sky clear below 12,000 feet AGL
QC Flag:automated observation with no human augmentation
Text:KBIJ 192015Z AUTO 19005KT 10SM CLR 17/05 A3017 RMK AO2
Temperature: 17.0°C ( 63°F)
Dewpoint: 5.0°C ( 41°F) [RH = 45%]
Pressure (altimeter):30.17 inches Hg (1021.8 mb)
Winds:from the S (190 degrees) at 6 MPH (5 knots; 2.6 m/s)
Visibility:10 or more sm (16+ km)
Ceiling:at least 12,000 feet AGL
Clouds:sky clear below 12,000 feet AGL
QC Flag:automated observation with no human augmentation
Text:KBIJ 191955Z AUTO 17005KT 10SM CLR 17/05 A3017 RMK AO2
Temperature: 17.0°C ( 63°F)
Dewpoint: 5.0°C ( 41°F) [RH = 45%]
Pressure (altimeter):30.17 inches Hg (1021.8 mb)
Winds:from the S (170 degrees) at 6 MPH (5 knots; 2.6 m/s)
Visibility:10 or more sm (16+ km)
Ceiling:at least 12,000 feet AGL
Clouds:sky clear below 12,000 feet AGL
QC Flag:automated observation with no human augmentation
Text:KBIJ 191935Z AUTO 00000KT 10SM CLR 17/05 A3018 RMK AO2
Temperature: 17.0°C ( 63°F)
Dewpoint: 5.0°C ( 41°F) [RH = 45%]
Pressure (altimeter):30.18 inches Hg (1022.1 mb)
Winds:calm
Visibility:10 or more sm (16+ km)
Ceiling:at least 12,000 feet AGL
Clouds:sky clear below 12,000 feet AGL
QC Flag:automated observation with no human augmentation
Text:KBIJ 191915Z AUTO 18006KT 10SM CLR 16/05 A3019 RMK AO2
Temperature: 16.0°C ( 61°F)
Dewpoint: 5.0°C ( 41°F) [RH = 48%]
Pressure (altimeter):30.19 inches Hg (1022.4 mb)
Winds:from the S (180 degrees) at 7 MPH (6 knots; 3.1 m/s)
Visibility:10 or more sm (16+ km)
Ceiling:at least 12,000 feet AGL
Clouds:sky clear below 12,000 feet AGL
QC Flag:automated observation with no human augmentation
Text:KBIJ 191855Z AUTO 16004KT 10SM CLR 16/05 A3020 RMK AO2
Temperature: 16.0°C ( 61°F)
Dewpoint: 5.0°C ( 41°F) [RH = 48%]
Pressure (altimeter):30.20 inches Hg (1022.8 mb)
Winds:from the SSE (160 degrees) at 5 MPH (4 knots; 2.1 m/s)
Visibility:10 or more sm (16+ km)
Ceiling:at least 12,000 feet AGL
Clouds:sky clear below 12,000 feet AGL
QC Flag:automated observation with no human augmentation
Text:KBIJ 191835Z AUTO 18003KT 10SM CLR 16/04 A3021 RMK AO2
Temperature: 16.0°C ( 61°F)
Dewpoint: 4.0°C ( 39°F) [RH = 45%]
Pressure (altimeter):30.21 inches Hg (1023.1 mb)
Winds:from the S (180 degrees) at 3 MPH (3 knots; 1.5 m/s)
Visibility:10 or more sm (16+ km)
Ceiling:at least 12,000 feet AGL
Clouds:sky clear below 12,000 feet AGL
QC Flag:automated observation with no human augmentation
Text:KBIJ 191815Z AUTO 13003KT 10SM CLR 16/04 A3022 RMK AO2
Temperature: 16.0°C ( 61°F)
Dewpoint: 4.0°C ( 39°F) [RH = 45%]
Pressure (altimeter):30.22 inches Hg (1023.5 mb)
Winds:from the SE (130 degrees) at 3 MPH (3 knots; 1.5 m/s)
Visibility:10 or more sm (16+ km)
Ceiling:at least 12,000 feet AGL
Clouds:sky clear below 12,000 feet AGL
QC Flag:automated observation with no human augmentation
Text:KBIJ 191755Z AUTO 21004KT 10SM CLR 16/04 A3024 RMK AO2
Temperature: 16.0°C ( 61°F)
Dewpoint: 4.0°C ( 39°F) [RH = 45%]
Pressure (altimeter):30.24 inches Hg (1024.1 mb)
Winds:from the SSW (210 degrees) at 5 MPH (4 knots; 2.1 m/s)
Visibility:10 or more sm (16+ km)
Ceiling:at least 12,000 feet AGL
Clouds:sky clear below 12,000 feet AGL
QC Flag:automated observation with no human augmentation
Text:KBIJ 191735Z AUTO 17003KT 10SM CLR 15/03 A3025 RMK AO2
Temperature: 15.0°C ( 59°F)
Dewpoint: 3.0°C ( 37°F) [RH = 44%]
Pressure (altimeter):30.25 inches Hg (1024.5 mb)
Winds:from the S (170 degrees) at 3 MPH (3 knots; 1.5 m/s)
Visibility:10 or more sm (16+ km)
Ceiling:at least 12,000 feet AGL
Clouds:sky clear below 12,000 feet AGL
QC Flag:automated observation with no human augmentation
Text:KBIJ 191715Z AUTO 15004KT 10SM CLR 15/02 A3026 RMK AO2
Temperature: 15.0°C ( 59°F)
Dewpoint: 2.0°C ( 36°F) [RH = 41%]
Pressure (altimeter):30.26 inches Hg (1024.8 mb)
Winds:from the SSE (150 degrees) at 5 MPH (4 knots; 2.1 m/s)
Visibility:10 or more sm (16+ km)
Ceiling:at least 12,000 feet AGL
Clouds:sky clear below 12,000 feet AGL
QC Flag:automated observation with no human augmentation
Text:KBIJ 191655Z AUTO 00000KT 10SM CLR 14/02 A3027 RMK AO2
Temperature: 14.0°C ( 57°F)
Dewpoint: 2.0°C ( 36°F) [RH = 44%]
Pressure (altimeter):30.27 inches Hg (1025.1 mb)
Winds:calm
Visibility:10 or more sm (16+ km)
Ceiling:at least 12,000 feet AGL
Clouds:sky clear below 12,000 feet AGL
QC Flag:automated observation with no human augmentation
Text:KBIJ 191635Z AUTO 18004KT 10SM CLR 13/02 A3027 RMK AO2
Temperature: 13.0°C ( 55°F)
Dewpoint: 2.0°C ( 36°F) [RH = 47%]
Pressure (altimeter):30.27 inches Hg (1025.1 mb)
Winds:from the S (180 degrees) at 5 MPH (4 knots; 2.1 m/s)
Visibility:10 or more sm (16+ km)
Ceiling:at least 12,000 feet AGL
Clouds:sky clear below 12,000 feet AGL
QC Flag:automated observation with no human augmentation
Text:KBIJ 191615Z AUTO 15004KT 10SM CLR 12/02 A3028 RMK AO2
Temperature: 12.0°C ( 54°F)
Dewpoint: 2.0°C ( 36°F) [RH = 50%]
Pressure (altimeter):30.28 inches Hg (1025.5 mb)
Winds:from the SSE (150 degrees) at 5 MPH (4 knots; 2.1 m/s)
Visibility:10 or more sm (16+ km)
Ceiling:at least 12,000 feet AGL
Clouds:sky clear below 12,000 feet AGL
QC Flag:automated observation with no human augmentation
Text:KBIJ 191555Z AUTO 12003KT 10SM CLR 11/03 A3029 RMK AO2
Temperature: 11.0°C ( 52°F)
Dewpoint: 3.0°C ( 37°F) [RH = 58%]
Pressure (altimeter):30.29 inches Hg (1025.8 mb)
Winds:from the ESE (120 degrees) at 3 MPH (3 knots; 1.5 m/s)
Visibility:10 or more sm (16+ km)
Ceiling:at least 12,000 feet AGL
Clouds:sky clear below 12,000 feet AGL
QC Flag:automated observation with no human augmentation
Text:KBIJ 191535Z AUTO 00000KT 10SM CLR 10/04 A3030 RMK AO2
Temperature: 10.0°C ( 50°F)
Dewpoint: 4.0°C ( 39°F) [RH = 66%]
Pressure (altimeter):30.30 inches Hg (1026.2 mb)
Winds:calm
Visibility:10 or more sm (16+ km)
Ceiling:at least 12,000 feet AGL
Clouds:sky clear below 12,000 feet AGL
QC Flag:automated observation with no human augmentation
Text:KBIJ 191515Z AUTO 00000KT 10SM CLR 08/03 A3030 RMK AO2
Temperature: 8.0°C ( 46°F)
Dewpoint: 3.0°C ( 37°F) [RH = 71%]
Pressure (altimeter):30.30 inches Hg (1026.2 mb)
Winds:calm
Visibility:10 or more sm (16+ km)
Ceiling:at least 12,000 feet AGL
Clouds:sky clear below 12,000 feet AGL
QC Flag:automated observation with no human augmentation
Text:KBIJ 191455Z AUTO 00000KT 10SM CLR 07/03 A3029 RMK AO2
Temperature: 7.0°C ( 45°F)
Dewpoint: 3.0°C ( 37°F) [RH = 76%]
Pressure (altimeter):30.29 inches Hg (1025.8 mb)
Winds:calm
Visibility:10 or more sm (16+ km)
Ceiling:at least 12,000 feet AGL
Clouds:sky clear below 12,000 feet AGL
QC Flag:automated observation with no human augmentation
Text:KBIJ 191435Z AUTO 00000KT 10SM CLR 06/02 A3029 RMK AO2
Temperature: 6.0°C ( 43°F)
Dewpoint: 2.0°C ( 36°F) [RH = 75%]
Pressure (altimeter):30.29 inches Hg (1025.8 mb)
Winds:calm
Visibility:10 or more sm (16+ km)
Ceiling:at least 12,000 feet AGL
Clouds:sky clear below 12,000 feet AGL
QC Flag:automated observation with no human augmentation
Text:KBIJ 191415Z AUTO 00000KT 10SM CLR 05/02 A3029 RMK AO2
Temperature: 5.0°C ( 41°F)
Dewpoint: 2.0°C ( 36°F) [RH = 81%]
Pressure (altimeter):30.29 inches Hg (1025.8 mb)
Winds:calm
Visibility:10 or more sm (16+ km)
Ceiling:at least 12,000 feet AGL
Clouds:sky clear below 12,000 feet AGL
QC Flag:automated observation with no human augmentation
Text:KBIJ 191355Z AUTO 00000KT 10SM CLR 03/02 A3028 RMK AO2
Temperature: 3.0°C ( 37°F)
Dewpoint: 2.0°C ( 36°F) [RH = 93%]
Pressure (altimeter):30.28 inches Hg (1025.5 mb)
Winds:calm
Visibility:10 or more sm (16+ km)
Ceiling:at least 12,000 feet AGL
Clouds:sky clear below 12,000 feet AGL
QC Flag:automated observation with no human augmentation
Text:KBIJ 191335Z AUTO 00000KT 10SM CLR 02/01 A3028 RMK AO2
Temperature: 2.0°C ( 36°F)
Dewpoint: 1.0°C ( 34°F) [RH = 93%]
Pressure (altimeter):30.28 inches Hg (1025.5 mb)
Winds:calm
Visibility:10 or more sm (16+ km)
Ceiling:at least 12,000 feet AGL
Clouds:sky clear below 12,000 feet AGL
QC Flag:automated observation with no human augmentation
Text:KBIJ 191315Z AUTO 00000KT 10SM CLR 00/00 A3027 RMK AO2
Temperature: 0.0°C ( 32°F)
Dewpoint: 0.0°C ( 32°F) [RH = 100%]
Pressure (altimeter):30.27 inches Hg (1025.1 mb)
Winds:calm
Visibility:10 or more sm (16+ km)
Ceiling:at least 12,000 feet AGL
Clouds:sky clear below 12,000 feet AGL
QC Flag:automated observation with no human augmentation
Text:KBIJ 191255Z AUTO 00000KT 10SM CLR 00/00 A3027 RMK AO2
Temperature: 0.0°C ( 32°F)
Dewpoint: 0.0°C ( 32°F) [RH = 100%]
Pressure (altimeter):30.27 inches Hg (1025.1 mb)
Winds:calm
Visibility:10 or more sm (16+ km)
Ceiling:at least 12,000 feet AGL
Clouds:sky clear below 12,000 feet AGL
QC Flag:automated observation with no human augmentation
Text:KBIJ 191235Z AUTO 00000KT 10SM CLR 00/00 A3027 RMK AO2
Temperature: 0.0°C ( 32°F)
Dewpoint: 0.0°C ( 32°F) [RH = 100%]
Pressure (altimeter):30.27 inches Hg (1025.1 mb)
Winds:calm
Visibility:10 or more sm (16+ km)
Ceiling:at least 12,000 feet AGL
Clouds:sky clear below 12,000 feet AGL
QC Flag:automated observation with no human augmentation
Text:KBIJ 191215Z AUTO 00000KT 10SM CLR 00/00 A3026 RMK AO2
Temperature: 0.0°C ( 32°F)
Dewpoint: 0.0°C ( 32°F) [RH = 100%]
Pressure (altimeter):30.26 inches Hg (1024.8 mb)
Winds:calm
Visibility:10 or more sm (16+ km)
Ceiling:at least 12,000 feet AGL
Clouds:sky clear below 12,000 feet AGL
QC Flag:automated observation with no human augmentation
Text:KBIJ 191155Z AUTO 00000KT 10SM CLR 00/M01 A3025 RMK AO2
Temperature: 0.0°C ( 32°F)
Dewpoint: -1.0°C ( 30°F) [RH = 93%]
Pressure (altimeter):30.25 inches Hg (1024.5 mb)
Winds:calm
Visibility:10 or more sm (16+ km)
Ceiling:at least 12,000 feet AGL
Clouds:sky clear below 12,000 feet AGL
QC Flag:automated observation with no human augmentation
Text:KBIJ 191135Z AUTO 00000KT 10SM CLR 00/M01 A3025 RMK AO2
Temperature: 0.0°C ( 32°F)
Dewpoint: -1.0°C ( 30°F) [RH = 93%]
Pressure (altimeter):30.25 inches Hg (1024.5 mb)
Winds:calm
Visibility:10 or more sm (16+ km)
Ceiling:at least 12,000 feet AGL
Clouds:sky clear below 12,000 feet AGL
QC Flag:automated observation with no human augmentation
Text:KBIJ 191115Z AUTO 00000KT 7SM CLR 00/M01 A3024 RMK AO2
Temperature: 0.0°C ( 32°F)
Dewpoint: -1.0°C ( 30°F) [RH = 93%]
Pressure (altimeter):30.24 inches Hg (1024.1 mb)
Winds:calm
Visibility: 7 sm ( 11 km)
Ceiling:at least 12,000 feet AGL
Clouds:sky clear below 12,000 feet AGL
QC Flag:automated observation with no human augmentation
Text:KBIJ 191055Z AUTO 00000KT 10SM CLR 00/M01 A3024 RMK AO2
Temperature: 0.0°C ( 32°F)
Dewpoint: -1.0°C ( 30°F) [RH = 93%]
Pressure (altimeter):30.24 inches Hg (1024.1 mb)
Winds:calm
Visibility:10 or more sm (16+ km)
Ceiling:at least 12,000 feet AGL
Clouds:sky clear below 12,000 feet AGL
QC Flag:automated observation with no human augmentation
Text:KBIJ 191035Z AUTO 00000KT 10SM CLR 00/M01 A3023 RMK AO2
Temperature: 0.0°C ( 32°F)
Dewpoint: -1.0°C ( 30°F) [RH = 93%]
Pressure (altimeter):30.23 inches Hg (1023.8 mb)
Winds:calm
Visibility:10 or more sm (16+ km)
Ceiling:at least 12,000 feet AGL
Clouds:sky clear below 12,000 feet AGL
QC Flag:automated observation with no human augmentation
Text:KBIJ 191015Z AUTO 00000KT 10SM CLR M01/M01 A3022 RMK AO2
Temperature: -1.0°C ( 30°F)
Dewpoint: -1.0°C ( 30°F) [RH = 100%]
Pressure (altimeter):30.22 inches Hg (1023.5 mb)
Winds:calm
Visibility:10 or more sm (16+ km)
Ceiling:at least 12,000 feet AGL
Clouds:sky clear below 12,000 feet AGL
QC Flag:automated observation with no human augmentation
Text:KBIJ 190955Z AUTO 00000KT 10SM CLR 00/00 A3023 RMK AO2
Temperature: 0.0°C ( 32°F)
Dewpoint: 0.0°C ( 32°F) [RH = 100%]
Pressure (altimeter):30.23 inches Hg (1023.8 mb)
Winds:calm
Visibility:10 or more sm (16+ km)
Ceiling:at least 12,000 feet AGL
Clouds:sky clear below 12,000 feet AGL
QC Flag:automated observation with no human augmentation
Text:KBIJ 190935Z AUTO 00000KT 10SM CLR 00/M01 A3022 RMK AO2
Temperature: 0.0°C ( 32°F)
Dewpoint: -1.0°C ( 30°F) [RH = 93%]
Pressure (altimeter):30.22 inches Hg (1023.5 mb)
Winds:calm
Visibility:10 or more sm (16+ km)
Ceiling:at least 12,000 feet AGL
Clouds:sky clear below 12,000 feet AGL
QC Flag:automated observation with no human augmentation
Text:KBIJ 190915Z AUTO 00000KT 10SM CLR 00/M01 A3022 RMK AO2
Temperature: 0.0°C ( 32°F)
Dewpoint: -1.0°C ( 30°F) [RH = 93%]
Pressure (altimeter):30.22 inches Hg (1023.5 mb)
Winds:calm
Visibility:10 or more sm (16+ km)
Ceiling:at least 12,000 feet AGL
Clouds:sky clear below 12,000 feet AGL
QC Flag:automated observation with no human augmentation
Text:KBIJ 190855Z AUTO 00000KT 10SM CLR 00/00 A3021 RMK AO2
Temperature: 0.0°C ( 32°F)
Dewpoint: 0.0°C ( 32°F) [RH = 100%]
Pressure (altimeter):30.21 inches Hg (1023.1 mb)
Winds:calm
Visibility:10 or more sm (16+ km)
Ceiling:at least 12,000 feet AGL
Clouds:sky clear below 12,000 feet AGL
QC Flag:automated observation with no human augmentation
Text:KBIJ 190835Z AUTO 00000KT 10SM CLR 00/M01 A3020 RMK AO2
Temperature: 0.0°C ( 32°F)
Dewpoint: -1.0°C ( 30°F) [RH = 93%]
Pressure (altimeter):30.20 inches Hg (1022.8 mb)
Winds:calm
Visibility:10 or more sm (16+ km)
Ceiling:at least 12,000 feet AGL
Clouds:sky clear below 12,000 feet AGL
QC Flag:automated observation with no human augmentation
Text:KBIJ 190815Z AUTO 00000KT 10SM CLR 00/M01 A3021 RMK AO2
Temperature: 0.0°C ( 32°F)
Dewpoint: -1.0°C ( 30°F) [RH = 93%]
Pressure (altimeter):30.21 inches Hg (1023.1 mb)
Winds:calm
Visibility:10 or more sm (16+ km)
Ceiling:at least 12,000 feet AGL
Clouds:sky clear below 12,000 feet AGL
QC Flag:automated observation with no human augmentation
Text:KBIJ 190755Z AUTO 00000KT 10SM CLR 00/00 A3022 RMK AO2
Temperature: 0.0°C ( 32°F)
Dewpoint: 0.0°C ( 32°F) [RH = 100%]
Pressure (altimeter):30.22 inches Hg (1023.5 mb)
Winds:calm
Visibility:10 or more sm (16+ km)
Ceiling:at least 12,000 feet AGL
Clouds:sky clear below 12,000 feet AGL
QC Flag:automated observation with no human augmentation
Text:KBIJ 190735Z AUTO 00000KT 10SM CLR 00/00 A3022 RMK AO2
Temperature: 0.0°C ( 32°F)
Dewpoint: 0.0°C ( 32°F) [RH = 100%]
Pressure (altimeter):30.22 inches Hg (1023.5 mb)
Winds:calm
Visibility:10 or more sm (16+ km)
Ceiling:at least 12,000 feet AGL
Clouds:sky clear below 12,000 feet AGL
QC Flag:automated observation with no human augmentation
Text:KBIJ 190715Z AUTO 00000KT 10SM CLR 00/00 A3022 RMK AO2
Temperature: 0.0°C ( 32°F)
Dewpoint: 0.0°C ( 32°F) [RH = 100%]
Pressure (altimeter):30.22 inches Hg (1023.5 mb)
Winds:calm
Visibility:10 or more sm (16+ km)
Ceiling:at least 12,000 feet AGL
Clouds:sky clear below 12,000 feet AGL
QC Flag:automated observation with no human augmentation
Text:KBIJ 190655Z AUTO 00000KT 10SM CLR 00/00 A3022 RMK AO2
Temperature: 0.0°C ( 32°F)
Dewpoint: 0.0°C ( 32°F) [RH = 100%]
Pressure (altimeter):30.22 inches Hg (1023.5 mb)
Winds:calm
Visibility:10 or more sm (16+ km)
Ceiling:at least 12,000 feet AGL
Clouds:sky clear below 12,000 feet AGL
QC Flag:automated observation with no human augmentation
Text:KBIJ 190635Z AUTO 00000KT 10SM CLR 00/00 A3024 RMK AO2
Temperature: 0.0°C ( 32°F)
Dewpoint: 0.0°C ( 32°F) [RH = 100%]
Pressure (altimeter):30.24 inches Hg (1024.1 mb)
Winds:calm
Visibility:10 or more sm (16+ km)
Ceiling:at least 12,000 feet AGL
Clouds:sky clear below 12,000 feet AGL
QC Flag:automated observation with no human augmentation
Text:KBIJ 190615Z AUTO 00000KT 10SM CLR 01/00 A3023 RMK AO2
Temperature: 1.0°C ( 34°F)
Dewpoint: 0.0°C ( 32°F) [RH = 93%]
Pressure (altimeter):30.23 inches Hg (1023.8 mb)
Winds:calm
Visibility:10 or more sm (16+ km)
Ceiling:at least 12,000 feet AGL
Clouds:sky clear below 12,000 feet AGL
QC Flag:automated observation with no human augmentation
Text:KBIJ 190555Z AUTO 00000KT 10SM CLR 01/00 A3024 RMK AO2
Temperature: 1.0°C ( 34°F)
Dewpoint: 0.0°C ( 32°F) [RH = 93%]
Pressure (altimeter):30.24 inches Hg (1024.1 mb)
Winds:calm
Visibility:10 or more sm (16+ km)
Ceiling:at least 12,000 feet AGL
Clouds:sky clear below 12,000 feet AGL
QC Flag:automated observation with no human augmentation
Text:KBIJ 190535Z AUTO 00000KT 10SM CLR 01/00 A3024 RMK AO2
Temperature: 1.0°C ( 34°F)
Dewpoint: 0.0°C ( 32°F) [RH = 93%]
Pressure (altimeter):30.24 inches Hg (1024.1 mb)
Winds:calm
Visibility:10 or more sm (16+ km)
Ceiling:at least 12,000 feet AGL
Clouds:sky clear below 12,000 feet AGL
QC Flag:automated observation with no human augmentation
Text:KBIJ 190515Z AUTO 00000KT 10SM CLR 01/00 A3024 RMK AO2
Temperature: 1.0°C ( 34°F)
Dewpoint: 0.0°C ( 32°F) [RH = 93%]
Pressure (altimeter):30.24 inches Hg (1024.1 mb)
Winds:calm
Visibility:10 or more sm (16+ km)
Ceiling:at least 12,000 feet AGL
Clouds:sky clear below 12,000 feet AGL
QC Flag:automated observation with no human augmentation
Text:KBIJ 190455Z AUTO 00000KT 10SM CLR 01/01 A3024 RMK AO2
Temperature: 1.0°C ( 34°F)
Dewpoint: 1.0°C ( 34°F) [RH = 100%]
Pressure (altimeter):30.24 inches Hg (1024.1 mb)
Winds:calm
Visibility:10 or more sm (16+ km)
Ceiling:at least 12,000 feet AGL
Clouds:sky clear below 12,000 feet AGL
QC Flag:automated observation with no human augmentation
Text:KBIJ 190435Z AUTO 00000KT 10SM CLR 01/00 A3024 RMK AO2
Temperature: 1.0°C ( 34°F)
Dewpoint: 0.0°C ( 32°F) [RH = 93%]
Pressure (altimeter):30.24 inches Hg (1024.1 mb)
Winds:calm
Visibility:10 or more sm (16+ km)
Ceiling:at least 12,000 feet AGL
Clouds:sky clear below 12,000 feet AGL
QC Flag:automated observation with no human augmentation
Text:KBIJ 190415Z AUTO 00000KT 10SM CLR 01/01 A3025 RMK AO2
Temperature: 1.0°C ( 34°F)
Dewpoint: 1.0°C ( 34°F) [RH = 100%]
Pressure (altimeter):30.25 inches Hg (1024.5 mb)
Winds:calm
Visibility:10 or more sm (16+ km)
Ceiling:at least 12,000 feet AGL
Clouds:sky clear below 12,000 feet AGL
QC Flag:automated observation with no human augmentation
Text:KBIJ 190355Z AUTO 00000KT 10SM CLR 02/01 A3024 RMK AO2
Temperature: 2.0°C ( 36°F)
Dewpoint: 1.0°C ( 34°F) [RH = 93%]
Pressure (altimeter):30.24 inches Hg (1024.1 mb)
Winds:calm
Visibility:10 or more sm (16+ km)
Ceiling:at least 12,000 feet AGL
Clouds:sky clear below 12,000 feet AGL
QC Flag:automated observation with no human augmentation
Text:KBIJ 190335Z AUTO 00000KT 10SM CLR 02/01 A3023 RMK AO2
Temperature: 2.0°C ( 36°F)
Dewpoint: 1.0°C ( 34°F) [RH = 93%]
Pressure (altimeter):30.23 inches Hg (1023.8 mb)
Winds:calm
Visibility:10 or more sm (16+ km)
Ceiling:at least 12,000 feet AGL
Clouds:sky clear below 12,000 feet AGL
QC Flag:automated observation with no human augmentation
Text:KBIJ 190315Z AUTO 00000KT 10SM CLR 02/01 A3023 RMK AO2
Temperature: 2.0°C ( 36°F)
Dewpoint: 1.0°C ( 34°F) [RH = 93%]
Pressure (altimeter):30.23 inches Hg (1023.8 mb)
Winds:calm
Visibility:10 or more sm (16+ km)
Ceiling:at least 12,000 feet AGL
Clouds:sky clear below 12,000 feet AGL
QC Flag:automated observation with no human augmentation
Text:KBIJ 190255Z AUTO 00000KT 10SM CLR 02/01 A3022 RMK AO2
Temperature: 2.0°C ( 36°F)
Dewpoint: 1.0°C ( 34°F) [RH = 93%]
Pressure (altimeter):30.22 inches Hg (1023.5 mb)
Winds:calm
Visibility:10 or more sm (16+ km)
Ceiling:at least 12,000 feet AGL
Clouds:sky clear below 12,000 feet AGL
QC Flag:automated observation with no human augmentation
Text:KBIJ 190235Z AUTO 00000KT 10SM CLR 02/01 A3023 RMK AO2
Temperature: 2.0°C ( 36°F)
Dewpoint: 1.0°C ( 34°F) [RH = 93%]
Pressure (altimeter):30.23 inches Hg (1023.8 mb)
Winds:calm
Visibility:10 or more sm (16+ km)
Ceiling:at least 12,000 feet AGL
Clouds:sky clear below 12,000 feet AGL
QC Flag:automated observation with no human augmentation
Text:KBIJ 190215Z AUTO 00000KT 10SM CLR 03/01 A3023 RMK AO2
Temperature: 3.0°C ( 37°F)
Dewpoint: 1.0°C ( 34°F) [RH = 87%]
Pressure (altimeter):30.23 inches Hg (1023.8 mb)
Winds:calm
Visibility:10 or more sm (16+ km)
Ceiling:at least 12,000 feet AGL
Clouds:sky clear below 12,000 feet AGL
QC Flag:automated observation with no human augmentation
Text:KBIJ 190155Z AUTO 00000KT 10SM CLR 03/02 A3023 RMK AO2
Temperature: 3.0°C ( 37°F)
Dewpoint: 2.0°C ( 36°F) [RH = 93%]
Pressure (altimeter):30.23 inches Hg (1023.8 mb)
Winds:calm
Visibility:10 or more sm (16+ km)
Ceiling:at least 12,000 feet AGL
Clouds:sky clear below 12,000 feet AGL
QC Flag:automated observation with no human augmentation
Text:KBIJ 190135Z AUTO 00000KT 10SM CLR 03/02 A3022 RMK AO2
Temperature: 3.0°C ( 37°F)
Dewpoint: 2.0°C ( 36°F) [RH = 93%]
Pressure (altimeter):30.22 inches Hg (1023.5 mb)
Winds:calm
Visibility:10 or more sm (16+ km)
Ceiling:at least 12,000 feet AGL
Clouds:sky clear below 12,000 feet AGL
QC Flag:automated observation with no human augmentation
Text:KBIJ 190115Z AUTO 00000KT 10SM CLR 04/02 A3022 RMK AO2
Temperature: 4.0°C ( 39°F)
Dewpoint: 2.0°C ( 36°F) [RH = 87%]
Pressure (altimeter):30.22 inches Hg (1023.5 mb)
Winds:calm
Visibility:10 or more sm (16+ km)
Ceiling:at least 12,000 feet AGL
Clouds:sky clear below 12,000 feet AGL
QC Flag:automated observation with no human augmentation
Text:KBIJ 190055Z AUTO 00000KT 10SM CLR 05/02 A3022 RMK AO2
Temperature: 5.0°C ( 41°F)
Dewpoint: 2.0°C ( 36°F) [RH = 81%]
Pressure (altimeter):30.22 inches Hg (1023.5 mb)
Winds:calm
Visibility:10 or more sm (16+ km)
Ceiling:at least 12,000 feet AGL
Clouds:sky clear below 12,000 feet AGL
QC Flag:automated observation with no human augmentation
Text:KBIJ 190035Z AUTO 00000KT 10SM CLR 05/03 A3022 RMK AO2
Temperature: 5.0°C ( 41°F)
Dewpoint: 3.0°C ( 37°F) [RH = 87%]
Pressure (altimeter):30.22 inches Hg (1023.5 mb)
Winds:calm
Visibility:10 or more sm (16+ km)
Ceiling:at least 12,000 feet AGL
Clouds:sky clear below 12,000 feet AGL
QC Flag:automated observation with no human augmentation
Text:KBIJ 190015Z AUTO 00000KT 10SM CLR 06/03 A3022 RMK AO2
Temperature: 6.0°C ( 43°F)
Dewpoint: 3.0°C ( 37°F) [RH = 81%]
Pressure (altimeter):30.22 inches Hg (1023.5 mb)
Winds:calm
Visibility:10 or more sm (16+ km)
Ceiling:at least 12,000 feet AGL
Clouds:sky clear below 12,000 feet AGL
QC Flag:automated observation with no human augmentation
Text:KBIJ 182355Z AUTO 00000KT 10SM CLR 06/03 A3021 RMK AO2
Temperature: 6.0°C ( 43°F)
Dewpoint: 3.0°C ( 37°F) [RH = 81%]
Pressure (altimeter):30.21 inches Hg (1023.1 mb)
Winds:calm
Visibility:10 or more sm (16+ km)
Ceiling:at least 12,000 feet AGL
Clouds:sky clear below 12,000 feet AGL
QC Flag:automated observation with no human augmentation
Text:KBIJ 182335Z AUTO 00000KT 10SM CLR 08/03 A3021 RMK AO2
Temperature: 8.0°C ( 46°F)
Dewpoint: 3.0°C ( 37°F) [RH = 71%]
Pressure (altimeter):30.21 inches Hg (1023.1 mb)
Winds:calm
Visibility:10 or more sm (16+ km)
Ceiling:at least 12,000 feet AGL
Clouds:sky clear below 12,000 feet AGL
QC Flag:automated observation with no human augmentation
Text:KBIJ 182315Z AUTO 00000KT 10SM CLR 09/02 A3021 RMK AO2
Temperature: 9.0°C ( 48°F)
Dewpoint: 2.0°C ( 36°F) [RH = 61%]
Pressure (altimeter):30.21 inches Hg (1023.1 mb)
Winds:calm
Visibility:10 or more sm (16+ km)
Ceiling:at least 12,000 feet AGL
Clouds:sky clear below 12,000 feet AGL
QC Flag:automated observation with no human augmentation
Text:KBIJ 182255Z AUTO 00000KT 10SM CLR 10/02 A3020 RMK AO2
Temperature: 10.0°C ( 50°F)
Dewpoint: 2.0°C ( 36°F) [RH = 57%]
Pressure (altimeter):30.20 inches Hg (1022.8 mb)
Winds:calm
Visibility:10 or more sm (16+ km)
Ceiling:at least 12,000 feet AGL
Clouds:sky clear below 12,000 feet AGL
QC Flag:automated observation with no human augmentation
Text:KBIJ 182235Z AUTO 00000KT 10SM CLR 12/00 A3020 RMK AO2
Temperature: 12.0°C ( 54°F)
Dewpoint: 0.0°C ( 32°F) [RH = 44%]
Pressure (altimeter):30.20 inches Hg (1022.8 mb)
Winds:calm
Visibility:10 or more sm (16+ km)
Ceiling:at least 12,000 feet AGL
Clouds:sky clear below 12,000 feet AGL
QC Flag:automated observation with no human augmentation
Text:KBIJ 182215Z AUTO 00000KT 10SM CLR 13/M02 A3020 RMK AO2
Temperature: 13.0°C ( 55°F)
Dewpoint: -2.0°C ( 28°F) [RH = 35%]
Pressure (altimeter):30.20 inches Hg (1022.8 mb)
Winds:calm
Visibility:10 or more sm (16+ km)
Ceiling:at least 12,000 feet AGL
Clouds:sky clear below 12,000 feet AGL
QC Flag:automated observation with no human augmentation
Text:KBIJ 182155Z AUTO 00000KT 10SM CLR 13/M02 A3020 RMK AO2
Temperature: 13.0°C ( 55°F)
Dewpoint: -2.0°C ( 28°F) [RH = 35%]
Pressure (altimeter):30.20 inches Hg (1022.8 mb)
Winds:calm
Visibility:10 or more sm (16+ km)
Ceiling:at least 12,000 feet AGL
Clouds:sky clear below 12,000 feet AGL
QC Flag:automated observation with no human augmentation
Text:KBIJ 182135Z AUTO 00000KT 10SM CLR 13/M02 A3020 RMK AO2
Temperature: 13.0°C ( 55°F)
Dewpoint: -2.0°C ( 28°F) [RH = 35%]
Pressure (altimeter):30.20 inches Hg (1022.8 mb)
Winds:calm
Visibility:10 or more sm (16+ km)
Ceiling:at least 12,000 feet AGL
Clouds:sky clear below 12,000 feet AGL
QC Flag:automated observation with no human augmentation
Text:KBIJ 182115Z AUTO 00000KT 10SM CLR 13/M02 A3019 RMK AO2
Temperature: 13.0°C ( 55°F)
Dewpoint: -2.0°C ( 28°F) [RH = 35%]
Pressure (altimeter):30.19 inches Hg (1022.4 mb)
Winds:calm
Visibility:10 or more sm (16+ km)
Ceiling:at least 12,000 feet AGL
Clouds:sky clear below 12,000 feet AGL
QC Flag:automated observation with no human augmentation
Text:KBIJ 182055Z AUTO 20003KT 10SM CLR 13/M02 A3020 RMK AO2
Temperature: 13.0°C ( 55°F)
Dewpoint: -2.0°C ( 28°F) [RH = 35%]
Pressure (altimeter):30.20 inches Hg (1022.8 mb)
Winds:from the SSW (200 degrees) at 3 MPH (3 knots; 1.5 m/s)
Visibility:10 or more sm (16+ km)
Ceiling:at least 12,000 feet AGL
Clouds:sky clear below 12,000 feet AGL
QC Flag:automated observation with no human augmentation
Text:KBIJ 182035Z AUTO 23004KT 10SM CLR 13/M01 A3020 RMK AO2
Temperature: 13.0°C ( 55°F)
Dewpoint: -1.0°C ( 30°F) [RH = 38%]
Pressure (altimeter):30.20 inches Hg (1022.8 mb)
Winds:from the SW (230 degrees) at 5 MPH (4 knots; 2.1 m/s)
Visibility:10 or more sm (16+ km)
Ceiling:at least 12,000 feet AGL
Clouds:sky clear below 12,000 feet AGL
QC Flag:automated observation with no human augmentation
Text:KBIJ 182015Z AUTO 00000KT 10SM CLR 13/M02 A3019 RMK AO2
Temperature: 13.0°C ( 55°F)
Dewpoint: -2.0°C ( 28°F) [RH = 35%]
Pressure (altimeter):30.19 inches Hg (1022.4 mb)
Winds:calm
Visibility:10 or more sm (16+ km)
Ceiling:at least 12,000 feet AGL
Clouds:sky clear below 12,000 feet AGL
QC Flag:automated observation with no human augmentation
Text:KBIJ 181955Z AUTO 00000KT 10SM CLR 13/M01 A3020 RMK AO2
Temperature: 13.0°C ( 55°F)
Dewpoint: -1.0°C ( 30°F) [RH = 38%]
Pressure (altimeter):30.20 inches Hg (1022.8 mb)
Winds:calm
Visibility:10 or more sm (16+ km)
Ceiling:at least 12,000 feet AGL
Clouds:sky clear below 12,000 feet AGL
QC Flag:automated observation with no human augmentation
Text:KBIJ 181935Z AUTO 00000KT 10SM CLR 12/M01 A3020 RMK AO2
Temperature: 12.0°C ( 54°F)
Dewpoint: -1.0°C ( 30°F) [RH = 40%]
Pressure (altimeter):30.20 inches Hg (1022.8 mb)
Winds:calm
Visibility:10 or more sm (16+ km)
Ceiling:at least 12,000 feet AGL
Clouds:sky clear below 12,000 feet AGL
QC Flag:automated observation with no human augmentation
Text:KBIJ 181915Z AUTO 00000KT 10SM CLR 12/M01 A3021 RMK AO2
Temperature: 12.0°C ( 54°F)
Dewpoint: -1.0°C ( 30°F) [RH = 40%]
Pressure (altimeter):30.21 inches Hg (1023.1 mb)
Winds:calm
Visibility:10 or more sm (16+ km)
Ceiling:at least 12,000 feet AGL
Clouds:sky clear below 12,000 feet AGL
QC Flag:automated observation with no human augmentation
Text:KBIJ 181855Z AUTO 25003KT 10SM CLR 12/00 A3021 RMK AO2
Temperature: 12.0°C ( 54°F)
Dewpoint: 0.0°C ( 32°F) [RH = 44%]
Pressure (altimeter):30.21 inches Hg (1023.1 mb)
Winds:from the WSW (250 degrees) at 3 MPH (3 knots; 1.5 m/s)
Visibility:10 or more sm (16+ km)
Ceiling:at least 12,000 feet AGL
Clouds:sky clear below 12,000 feet AGL
QC Flag:automated observation with no human augmentation
Text:KBIJ 181835Z AUTO 00000KT 10SM CLR 11/00 A3021 RMK AO2
Temperature: 11.0°C ( 52°F)
Dewpoint: 0.0°C ( 32°F) [RH = 47%]
Pressure (altimeter):30.21 inches Hg (1023.1 mb)
Winds:calm
Visibility:10 or more sm (16+ km)
Ceiling:at least 12,000 feet AGL
Clouds:sky clear below 12,000 feet AGL
QC Flag:automated observation with no human augmentation
Text:KBIJ 181815Z AUTO 23003KT 10SM CLR 11/00 A3022 RMK AO2
Temperature: 11.0°C ( 52°F)
Dewpoint: 0.0°C ( 32°F) [RH = 47%]
Pressure (altimeter):30.22 inches Hg (1023.5 mb)
Winds:from the SW (230 degrees) at 3 MPH (3 knots; 1.5 m/s)
Visibility:10 or more sm (16+ km)
Ceiling:at least 12,000 feet AGL
Clouds:sky clear below 12,000 feet AGL
QC Flag:automated observation with no human augmentation
Text:KBIJ 181755Z AUTO 00000KT 10SM CLR 10/00 A3023 RMK AO2
Temperature: 10.0°C ( 50°F)
Dewpoint: 0.0°C ( 32°F) [RH = 50%]
Pressure (altimeter):30.23 inches Hg (1023.8 mb)
Winds:calm
Visibility:10 or more sm (16+ km)
Ceiling:at least 12,000 feet AGL
Clouds:sky clear below 12,000 feet AGL
QC Flag:automated observation with no human augmentation
Text:KBIJ 181735Z AUTO 00000KT 10SM CLR 10/00 A3024 RMK AO2
Temperature: 10.0°C ( 50°F)
Dewpoint: 0.0°C ( 32°F) [RH = 50%]
Pressure (altimeter):30.24 inches Hg (1024.1 mb)
Winds:calm
Visibility:10 or more sm (16+ km)
Ceiling:at least 12,000 feet AGL
Clouds:sky clear below 12,000 feet AGL
QC Flag:automated observation with no human augmentation
Text:KBIJ 181715Z AUTO 00000KT 10SM CLR 09/00 A3025 RMK AO2
Temperature: 9.0°C ( 48°F)
Dewpoint: 0.0°C ( 32°F) [RH = 53%]
Pressure (altimeter):30.25 inches Hg (1024.5 mb)
Winds:calm
Visibility:10 or more sm (16+ km)
Ceiling:at least 12,000 feet AGL
Clouds:sky clear below 12,000 feet AGL
QC Flag:automated observation with no human augmentation
Text:KBIJ 181655Z AUTO 00000KT 10SM CLR 08/00 A3026 RMK AO2
Temperature: 8.0°C ( 46°F)
Dewpoint: 0.0°C ( 32°F) [RH = 57%]
Pressure (altimeter):30.26 inches Hg (1024.8 mb)
Winds:calm
Visibility:10 or more sm (16+ km)
Ceiling:at least 12,000 feet AGL
Clouds:sky clear below 12,000 feet AGL
QC Flag:automated observation with no human augmentation
Text:KBIJ 181635Z AUTO 03003KT 10SM CLR 08/00 A3027 RMK AO2
Temperature: 8.0°C ( 46°F)
Dewpoint: 0.0°C ( 32°F) [RH = 57%]
Pressure (altimeter):30.27 inches Hg (1025.1 mb)
Winds:from the NNE (30 degrees) at 3 MPH (3 knots; 1.5 m/s)
Visibility:10 or more sm (16+ km)
Ceiling:at least 12,000 feet AGL
Clouds:sky clear below 12,000 feet AGL
QC Flag:automated observation with no human augmentation
Text:KBIJ 181615Z AUTO 04003KT 10SM CLR 07/00 A3027 RMK AO2
Temperature: 7.0°C ( 45°F)
Dewpoint: 0.0°C ( 32°F) [RH = 61%]
Pressure (altimeter):30.27 inches Hg (1025.1 mb)
Winds:from the NE (40 degrees) at 3 MPH (3 knots; 1.5 m/s)
Visibility:10 or more sm (16+ km)
Ceiling:at least 12,000 feet AGL
Clouds:sky clear below 12,000 feet AGL
QC Flag:automated observation with no human augmentation
Text:KBIJ 181555Z AUTO 34004KT 10SM CLR 07/00 A3027 RMK AO2
Temperature: 7.0°C ( 45°F)
Dewpoint: 0.0°C ( 32°F) [RH = 61%]
Pressure (altimeter):30.27 inches Hg (1025.1 mb)
Winds:from the NNW (340 degrees) at 5 MPH (4 knots; 2.1 m/s)
Visibility:10 or more sm (16+ km)
Ceiling:at least 12,000 feet AGL
Clouds:sky clear below 12,000 feet AGL
QC Flag:automated observation with no human augmentation
Text:KBIJ 181535Z AUTO 00000KT 10SM CLR 06/00 A3028 RMK AO2
Temperature: 6.0°C ( 43°F)
Dewpoint: 0.0°C ( 32°F) [RH = 65%]
Pressure (altimeter):30.28 inches Hg (1025.5 mb)
Winds:calm
Visibility:10 or more sm (16+ km)
Ceiling:at least 12,000 feet AGL
Clouds:sky clear below 12,000 feet AGL
QC Flag:automated observation with no human augmentation
Text:KBIJ 181515Z AUTO 00000KT 10SM CLR 05/00 A3028 RMK AO2
Temperature: 5.0°C ( 41°F)
Dewpoint: 0.0°C ( 32°F) [RH = 70%]
Pressure (altimeter):30.28 inches Hg (1025.5 mb)
Winds:calm
Visibility:10 or more sm (16+ km)
Ceiling:at least 12,000 feet AGL
Clouds:sky clear below 12,000 feet AGL
QC Flag:automated observation with no human augmentation
Text:KBIJ 181455Z AUTO 00000KT 10SM CLR 03/00 A3027 RMK AO2
Temperature: 3.0°C ( 37°F)
Dewpoint: 0.0°C ( 32°F) [RH = 81%]
Pressure (altimeter):30.27 inches Hg (1025.1 mb)
Winds:calm
Visibility:10 or more sm (16+ km)
Ceiling:at least 12,000 feet AGL
Clouds:sky clear below 12,000 feet AGL
QC Flag:automated observation with no human augmentation